Time;durP1;ratioP1;P1;durP2;ratioP2;P2;SDS_P1;SDS_P2;PMS_P1;PMS_P2;Temp;Humidity;BMP_temperature;BMP_pressure;BME280_temperature;BME280_humidity;BME280_pressure;Samples;Min_cycle;Max_cycle;Signal;HPM_P1;HPM_P2
2021/10/04 00:01:52;;;;;;;1999.90;999.90;;;;;;;6.18;91.11;96464.13;5071282;28;20204;-73
2021/10/04 00:04:19;;;;;;;1999.90;999.90;;;;;;;6.15;90.46;96464.63;5070875;28;20201;-73
2021/10/04 00:06:46;;;;;;;1999.90;999.90;;;;;;;6.07;90.99;96455.53;5071150;28;20246;-73
2021/10/04 00:09:13;;;;;;;1999.90;999.90;;;;;;;6.02;91.04;96456.25;5070802;28;20202;-73
2021/10/04 00:11:40;;;;;;;1999.90;999.90;;;;;;;6.08;91.61;96461.47;5070840;28;20200;-73
2021/10/04 00:14:09;;;;;;;1999.90;999.90;;;;;;;6.03;91.70;96462.94;5071016;28;20274;-73
2021/10/04 00:16:38;;;;;;;1999.90;999.90;;;;;;;5.99;91.72;96461.09;5070687;28;20193;-73
2021/10/04 00:19:05;;;;;;;1999.90;999.90;;;;;;;5.95;92.58;96457.44;5070844;28;20277;-73
2021/10/04 00:21:32;;;;;;;1999.90;999.90;;;;;;;5.94;92.51;96454.06;5070498;28;20257;-73
2021/10/04 00:23:59;;;;;;;1999.90;999.90;;;;;;;5.90;92.83;96455.56;5070386;28;20649;-73
2021/10/04 00:26:26;;;;;;;1999.90;999.90;;;;;;;5.90;92.57;96447.84;5070763;28;20923;-73
2021/10/04 00:28:53;;;;;;;1999.90;999.90;;;;;;;5.92;92.50;96448.38;5070684;28;20207;-72
2021/10/04 00:31:22;;;;;;;1999.90;999.90;;;;;;;5.82;92.48;96450.81;5070601;28;20720;-73
2021/10/04 00:33:49;;;;;;;1999.90;999.90;;;;;;;5.79;92.96;96448.69;5070741;28;20193;-73
2021/10/04 00:36:16;;;;;;;1999.90;999.90;;;;;;;5.79;92.65;96445.31;5070423;28;20228;-73
2021/10/04 00:38:43;;;;;;;1999.90;999.90;;;;;;;5.80;92.56;96447.66;5070591;28;20251;-73
2021/10/04 00:41:10;;;;;;;1999.90;999.90;;;;;;;5.58;91.77;96447.63;5070686;28;20281;-73
2021/10/04 00:43:37;;;;;;;1999.90;999.90;;;;;;;5.12;90.45;96448.81;5070755;28;20261;-73
2021/10/04 00:46:04;;;;;;;1999.90;999.90;;;;;;;4.78;91.12;96448.00;5070506;28;20227;-73
2021/10/04 00:48:33;;;;;;;1999.90;999.90;;;;;;;4.97;91.78;96443.41;5070192;28;20608;-73
2021/10/04 00:51:00;;;;;;;1999.90;999.90;;;;;;;5.08;91.65;96449.50;5070011;28;20692;-73
2021/10/04 00:53:27;;;;;;;1999.90;999.90;;;;;;;5.12;91.60;96451.38;5070049;28;20233;-73
2021/10/04 00:55:54;;;;;;;1999.90;999.90;;;;;;;5.16;92.90;96451.69;5069816;28;20200;-73
2021/10/04 00:58:22;;;;;;;1999.90;999.90;;;;;;;5.11;92.16;96444.66;5069876;28;20198;-73
2021/10/04 01:00:49;;;;;;;1999.90;999.90;;;;;;;5.13;91.86;96447.00;5069689;28;20212;-73
2021/10/04 01:03:17;;;;;;;1999.90;999.90;;;;;;;4.97;93.04;96456.28;5070101;28;20254;-73
2021/10/04 01:05:46;;;;;;;1999.90;999.90;;;;;;;4.99;93.68;96449.09;5069649;28;20810;-73
2021/10/04 01:08:13;;;;;;;1999.90;999.90;;;;;;;5.02;94.06;96456.38;5070116;28;20242;-74
2021/10/04 01:10:40;;;;;;;1999.90;999.90;;;;;;;5.05;94.59;96447.38;5070045;28;20256;-73
2021/10/04 01:13:07;;;;;;;1999.90;999.90;;;;;;;5.11;93.47;96446.47;5069937;28;20597;-73
2021/10/04 01:15:34;;;;;;;1999.90;999.90;;;;;;;5.11;93.32;96444.66;5068759;28;20200;-73
2021/10/04 01:18:01;;;;;;;1999.90;999.90;;;;;;;5.04;93.84;96444.03;5069659;28;20196;-71
2021/10/04 01:20:30;;;;;;;1999.90;999.90;;;;;;;4.98;93.24;96450.09;5069756;28;20291;-73
2021/10/04 01:22:57;;;;;;;1999.90;999.90;;;;;;;5.06;93.00;96448.97;5069426;28;20642;-73
2021/10/04 01:25:25;;;;;;;1999.90;999.90;;;;;;;5.04;93.07;96448.41;5069649;28;20228;-73
2021/10/04 01:27:53;;;;;;;1999.90;999.90;;;;;;;5.03;92.84;96445.03;5069276;28;20192;-72
2021/10/04 01:30:24;;;;;;;1999.90;999.90;;;;;;;5.09;93.58;96451.84;5069403;28;20207;-73
2021/10/04 01:32:54;;;;;;;1999.90;999.90;;;;;;;5.13;94.14;96442.63;5069331;28;20192;-73
2021/10/04 01:35:23;;;;;;;1999.90;999.90;;;;;;;5.05;93.41;96437.88;5069314;28;20613;-73
2021/10/04 01:37:51;;;;;;;1999.90;999.90;;;;;;;5.00;93.14;96440.38;5069151;28;20208;-72
2021/10/04 01:40:19;;;;;;;1999.90;999.90;;;;;;;4.88;93.27;96447.38;5069113;28;20211;-73
2021/10/04 01:42:46;;;;;;;1999.90;999.90;;;;;;;4.89;94.60;96445.59;5069157;28;20753;-73
2021/10/04 01:45:17;;;;;;;1999.90;999.90;;;;;;;4.78;94.26;96449.81;5068975;28;20695;-73
2021/10/04 01:47:44;;;;;;;1999.90;999.90;;;;;;;4.67;94.65;96453.22;5069235;28;20671;-73
2021/10/04 01:50:12;;;;;;;1999.90;999.90;;;;;;;4.61;95.50;96436.13;5069511;28;20582;-73
2021/10/04 01:52:40;;;;;;;1999.90;999.90;;;;;;;4.64;96.45;96453.66;5069186;28;20196;-72
2021/10/04 01:55:10;;;;;;;1999.90;999.90;;;;;;;4.63;97.39;96452.88;5068833;28;20235;-73
2021/10/04 01:57:37;;;;;;;1999.90;999.90;;;;;;;4.75;97.62;96447.69;5068939;28;20640;-73
2021/10/04 02:00:08;;;;;;;1999.90;999.90;;;;;;;4.81;97.43;96446.75;5069261;28;20620;-72
2021/10/04 02:02:35;;;;;;;1999.90;999.90;;;;;;;4.82;97.57;96447.53;5063632;28;20212;-73
2021/10/04 02:05:02;;;;;;;1999.90;999.90;;;;;;;4.84;98.27;96448.06;5057906;28;20212;-73
2021/10/04 02:07:29;;;;;;;1999.90;999.90;;;;;;;4.90;98.03;96447.94;5068415;28;20223;-73
2021/10/04 02:09:57;;;;;;;1999.90;999.90;;;;;;;4.99;98.70;96448.31;5067863;28;20209;-73
2021/10/04 02:12:25;;;;;;;1999.90;999.90;;;;;;;5.14;98.56;96444.19;5068588;28;20197;-73
2021/10/04 02:14:52;;;;;;;1999.90;999.90;;;;;;;5.12;99.44;96448.03;5068764;28;20254;-73
2021/10/04 02:17:19;;;;;;;1999.90;999.90;;;;;;;4.84;98.43;96453.22;5068808;28;20200;-73
2021/10/04 02:19:46;;;;;;;1999.90;999.90;;;;;;;4.77;96.74;96448.25;5068911;28;20197;-73
2021/10/04 02:22:13;;;;;;;1999.90;999.90;;;;;;;4.60;95.70;96447.41;5068963;28;20208;-73
2021/10/04 02:24:41;;;;;;;1999.90;999.90;;;;;;;4.54;95.45;96449.13;5068624;28;20200;-73
2021/10/04 02:27:08;;;;;;;1999.90;999.90;;;;;;;4.21;94.03;96449.84;5069585;28;20224;-73
2021/10/04 02:29:36;;;;;;;1999.90;999.90;;;;;;;4.07;93.29;96452.91;5072835;28;20992;-73
2021/10/04 02:32:04;;;;;;;1999.90;999.90;;;;;;;4.06;93.14;96452.13;5073014;28;20628;-73
2021/10/04 02:34:31;;;;;;;1999.90;999.90;;;;;;;4.02;93.65;96445.09;5072967;28;20294;-73
2021/10/04 02:36:58;;;;;;;1999.90;999.90;;;;;;;4.01;93.52;96456.38;5072778;28;20743;-73
2021/10/04 02:39:25;;;;;;;1999.90;999.90;;;;;;;4.01;94.08;96457.16;5072659;28;20794;-72
2021/10/04 02:41:52;;;;;;;1999.90;999.90;;;;;;;4.01;94.35;96452.00;5072693;28;20200;-73
2021/10/04 02:44:19;;;;;;;1999.90;999.90;;;;;;;4.05;94.57;96458.25;5072750;28;20250;-72
2021/10/04 02:46:48;;;;;;;1999.90;999.90;;;;;;;3.99;95.74;96459.16;5072539;28;20282;-73
2021/10/04 02:49:15;;;;;;;1999.90;999.90;;;;;;;4.01;95.72;96454.59;5072668;28;20201;-73
2021/10/04 02:51:42;;;;;;;1999.90;999.90;;;;;;;4.11;96.10;96454.78;5072590;28;20262;-73
2021/10/04 02:54:09;;;;;;;1999.90;999.90;;;;;;;4.05;95.06;96455.69;5072068;28;20289;-73
2021/10/04 02:56:36;;;;;;;1999.90;999.90;;;;;;;3.94;94.95;96453.13;5072292;28;20196;-73
2021/10/04 02:59:03;;;;;;;1999.90;999.90;;;;;;;3.79;95.44;96456.97;5072261;28;20969;-73
2021/10/04 03:01:31;;;;;;;1999.90;999.90;;;;;;;3.73;94.47;96455.31;5072387;28;20204;-73
2021/10/04 03:03:59;;;;;;;1999.90;999.90;;;;;;;3.66;94.78;96454.66;5072426;28;20219;-73
2021/10/04 03:06:26;;;;;;;1999.90;999.90;;;;;;;3.62;94.82;96466.41;5072012;28;20694;-73
2021/10/04 03:08:53;;;;;;;1999.90;999.90;;;;;;;3.58;94.46;96465.28;5072344;28;20204;-72
2021/10/04 03:11:20;;;;;;;1999.90;999.90;;;;;;;3.48;93.42;96467.63;5071776;28;20741;-72
2021/10/04 03:13:47;;;;;;;1999.90;999.90;;;;;;;3.42;92.78;96473.66;5071903;28;20295;-73
2021/10/04 03:16:14;;;;;;;1999.90;999.90;;;;;;;3.44;92.38;96475.00;5072198;28;20234;-73
2021/10/04 03:18:41;;;;;;;1999.90;999.90;;;;;;;3.37;93.15;96481.25;5071704;28;20242;-73
2021/10/04 03:21:09;;;;;;;1999.90;999.90;;;;;;;3.36;94.04;96477.13;5072081;28;20261;-73
2021/10/04 03:23:36;;;;;;;1999.90;999.90;;;;;;;3.41;94.35;96470.31;5071575;28;20288;-73
2021/10/04 03:26:04;;;;;;;1999.90;999.90;;;;;;;3.58;94.93;96465.28;5072094;28;20284;-73
2021/10/04 03:28:31;;;;;;;1999.90;999.90;;;;;;;3.62;96.09;96471.53;5071486;28;20253;-72
2021/10/04 03:30:58;;;;;;;1999.90;999.90;;;;;;;3.61;96.59;96467.41;5071458;28;20653;-73
2021/10/04 03:33:25;;;;;;;1999.90;999.90;;;;;;;3.71;97.29;96469.41;5071831;28;20192;-73
2021/10/04 03:35:52;;;;;;;1999.90;999.90;;;;;;;3.68;95.96;96462.94;5071414;28;20192;-73
2021/10/04 03:38:20;;;;;;;1999.90;999.90;;;;;;;3.66;97.31;96467.50;5070848;28;20196;-72
2021/10/04 03:40:47;;;;;;;1999.90;999.90;;;;;;;3.65;96.34;96465.94;5071030;28;20208;-73
2021/10/04 03:43:14;;;;;;;1999.90;999.90;;;;;;;3.66;97.05;96469.28;5071519;28;20287;-73
2021/10/04 03:45:41;;;;;;;1999.90;999.90;;;;;;;3.68;97.04;96469.84;5071672;28;20626;-73
2021/10/04 03:48:09;;;;;;;1999.90;999.90;;;;;;;3.70;96.89;96470.41;5071596;28;20587;-73
2021/10/04 03:50:36;;;;;;;1999.90;999.90;;;;;;;3.65;96.79;96476.22;5071319;28;20204;-73
2021/10/04 03:53:03;;;;;;;1999.90;999.90;;;;;;;3.57;96.82;96468.84;5071728;28;20223;-73
2021/10/04 03:55:32;;;;;;;1999.90;999.90;;;;;;;3.50;97.84;96464.81;5071290;28;20227;-72
2021/10/04 03:57:59;;;;;;;1999.90;999.90;;;;;;;3.52;97.00;96471.31;5071407;28;20200;-73
2021/10/04 04:00:28;;;;;;;1999.90;999.90;;;;;;;3.58;97.06;96469.63;5071074;28;20255;-73
2021/10/04 04:02:56;;;;;;;1999.90;999.90;;;;;;;3.56;97.35;96467.28;5071171;28;20208;-73
2021/10/04 04:05:23;;;;;;;1999.90;999.90;;;;;;;3.54;97.18;96463.41;5071030;28;20204;-73
2021/10/04 04:07:50;;;;;;;1999.90;999.90;;;;;;;3.56;97.48;96472.44;5071064;28;20285;-73
2021/10/04 04:10:17;;;;;;;1999.90;999.90;;;;;;;3.52;97.47;96476.47;5070964;28;20287;-73
2021/10/04 04:12:47;;;;;;;1999.90;999.90;;;;;;;3.49;97.00;96474.31;5071070;28;20254;-73
2021/10/04 04:15:15;;;;;;;1999.90;999.90;;;;;;;3.46;97.29;96472.22;5070813;28;20243;-73
2021/10/04 04:17:42;;;;;;;1999.90;999.90;;;;;;;3.56;97.50;96481.91;5070993;28;20196;-73
2021/10/04 04:20:10;;;;;;;1999.90;999.90;;;;;;;3.51;97.36;96484.38;5070760;28;20969;-73
2021/10/04 04:22:37;;;;;;;1999.90;999.90;;;;;;;3.59;96.93;96484.03;5070718;28;20196;-73
2021/10/04 04:25:05;;;;;;;1999.90;999.90;;;;;;;3.60;96.88;96480.47;5070608;28;20204;-73
2021/10/04 04:27:32;;;;;;;1999.90;999.90;;;;;;;3.57;96.32;96483.50;5070697;28;20605;-73
2021/10/04 04:30:01;;;;;;;1999.90;999.90;;;;;;;3.54;96.65;96489.09;5070601;28;20201;-73
2021/10/04 04:32:29;;;;;;;1999.90;999.90;;;;;;;3.55;97.04;96490.63;5070380;28;20287;-73
2021/10/04 04:34:57;;;;;;;1999.90;999.90;;;;;;;3.57;95.33;96486.06;5070393;28;20204;-73
2021/10/04 04:37:24;;;;;;;1999.90;999.90;;;;;;;3.52;95.47;96483.38;5070508;28;20292;-73
2021/10/04 04:39:51;;;;;;;1999.90;999.90;;;;;;;3.56;96.02;96487.06;5070217;28;20699;-73
2021/10/04 04:42:18;;;;;;;1999.90;999.90;;;;;;;3.61;96.73;96497.44;5070561;28;20204;-73
2021/10/04 04:44:45;;;;;;;1999.90;999.90;;;;;;;3.59;95.46;96496.88;5070270;28;20200;-73
2021/10/04 04:47:13;;;;;;;1999.90;999.90;;;;;;;3.55;95.77;96490.63;5070297;28;20228;-73
2021/10/04 04:49:40;;;;;;;1999.90;999.90;;;;;;;3.54;97.19;96487.28;5070022;28;20737;-73
2021/10/04 04:52:08;;;;;;;1999.90;999.90;;;;;;;3.54;96.78;96494.97;5070259;28;20209;-73
2021/10/04 04:54:35;;;;;;;1999.90;999.90;;;;;;;3.57;97.13;96486.84;5069712;28;20232;-73
2021/10/04 04:57:02;;;;;;;1999.90;999.90;;;;;;;3.61;98.45;96487.16;5069843;28;20204;-73
2021/10/04 04:59:29;;;;;;;1999.90;999.90;;;;;;;3.64;97.98;96486.72;5070183;28;20573;-73
2021/10/04 05:01:56;;;;;;;1999.90;999.90;;;;;;;3.74;98.56;96498.00;5069723;28;20688;-73
2021/10/04 05:04:25;;;;;;;1999.90;999.90;;;;;;;3.79;98.09;96495.53;5070008;28;20319;-72
2021/10/04 05:06:52;;;;;;;1999.90;999.90;;;;;;;3.89;98.45;96492.38;5069906;28;20277;-72
2021/10/04 05:09:19;;;;;;;1999.90;999.90;;;;;;;4.01;98.77;96497.53;5070197;28;20234;-73
2021/10/04 05:11:46;;;;;;;1999.90;999.90;;;;;;;4.06;98.71;96493.25;5069522;28;20197;-73
2021/10/04 05:14:13;;;;;;;1999.90;999.90;;;;;;;4.08;99.38;96500.75;5069682;28;20197;-72
2021/10/04 05:16:40;;;;;;;1999.90;999.90;;;;;;;4.20;98.76;96499.72;5069293;28;20189;-73
2021/10/04 05:19:07;;;;;;;1999.90;999.90;;;;;;;4.32;98.54;96512.56;5069561;28;20250;-72
2021/10/04 05:21:36;;;;;;;1999.90;999.90;;;;;;;4.46;98.29;96510.50;5069238;28;20200;-72
2021/10/04 05:24:03;;;;;;;1999.90;999.90;;;;;;;4.27;97.52;96509.88;5069267;28;20211;-73
2021/10/04 05:26:30;;;;;;;1999.90;999.90;;;;;;;4.21;99.09;96511.56;5069088;28;20193;-73
2021/10/04 05:28:57;;;;;;;1999.90;999.90;;;;;;;4.31;99.24;96511.78;5069703;28;20254;-72
2021/10/04 05:31:24;;;;;;;1999.90;999.90;;;;;;;4.43;100.00;96516.09;5069388;28;20207;-72
2021/10/04 05:33:51;;;;;;;1999.90;999.90;;;;;;;4.49;100.00;96508.22;5069469;28;20207;-72
2021/10/04 05:36:18;;;;;;;1999.90;999.90;;;;;;;4.57;100.00;96512.25;5069502;28;20193;-72
2021/10/04 05:38:47;;;;;;;1999.90;999.90;;;;;;;4.84;100.00;96505.50;5069316;28;20730;-72
2021/10/04 05:41:14;;;;;;;1999.90;999.90;;;;;;;5.63;100.00;96503.66;5069092;28;20238;-72
2021/10/04 05:43:42;;;;;;;1999.90;999.90;;;;;;;6.97;96.75;96508.34;5069084;28;20211;-72
2021/10/04 05:46:09;;;;;;;1999.90;999.90;;;;;;;8.44;90.90;96503.06;5069119;28;20666;-72
2021/10/04 05:48:37;;;;;;;1999.90;999.90;;;;;;;9.44;84.33;96512.03;5068973;28;20273;-73
2021/10/04 05:51:05;;;;;;;1999.90;999.90;;;;;;;10.42;78.60;96511.53;5068919;28;20196;-73
2021/10/04 05:53:33;;;;;;;1999.90;999.90;;;;;;;11.17;75.20;96515.53;5068979;28;20236;-72
2021/10/04 05:56:01;;;;;;;1999.90;999.90;;;;;;;11.73;73.00;96524.75;5069295;28;20254;-73
2021/10/04 05:58:28;;;;;;;1999.90;999.90;;;;;;;11.35;72.75;96526.34;5068954;28;20744;-72
2021/10/04 06:00:55;;;;;;;1999.90;999.90;;;;;;;10.48;75.29;96528.69;5069160;28;20254;-73
2021/10/04 06:03:22;;;;;;;1999.90;999.90;;;;;;;10.13;78.73;96519.16;5068706;28;20204;-72
2021/10/04 06:05:50;;;;;;;1999.90;999.90;;;;;;;10.69;78.41;96521.56;5069202;28;20203;-72
2021/10/04 06:08:17;;;;;;;1999.90;999.90;;;;;;;11.16;76.72;96521.00;5069239;28;20231;-72
2021/10/04 06:10:45;;;;;;;1999.90;999.90;;;;;;;11.00;76.50;96517.75;5068948;28;20269;-72
2021/10/04 06:13:13;;;;;;;1999.90;999.90;;;;;;;10.84;77.94;96523.31;5068865;28;20311;-72
2021/10/04 06:15:41;;;;;;;1999.90;999.90;;;;;;;11.20;76.83;96525.41;5069027;28;20196;-73
2021/10/04 06:18:11;;;;;;;1999.90;999.90;;;;;;;11.53;76.31;96525.66;5069155;28;20196;-73
2021/10/04 06:20:39;;;;;;;1999.90;999.90;;;;;;;11.10;76.76;96528.09;5068971;28;20275;-72
2021/10/04 06:23:06;;;;;;;1999.90;999.90;;;;;;;10.73;79.24;96522.59;5068961;28;20257;-72
2021/10/04 06:25:33;;;;;;;1999.90;999.90;;;;;;;10.51;82.03;96514.38;5068753;28;20207;-72
2021/10/04 06:28:00;;;;;;;1999.90;999.90;;;;;;;10.57;82.79;96516.69;5068792;28;20220;-72
2021/10/04 06:30:29;;;;;;;1999.90;999.90;;;;;;;10.67;81.14;96521.03;5068698;28;20680;-72
2021/10/04 06:32:56;;;;;;;1999.90;999.90;;;;;;;10.51;80.15;96525.53;5068824;28;20684;-72
2021/10/04 06:35:23;;;;;;;1999.90;999.90;;;;;;;10.63;79.96;96526.00;5068626;28;20223;-72
2021/10/04 06:37:50;;;;;;;1999.90;999.90;;;;;;;10.83;79.08;96532.94;5068554;28;20283;-72
2021/10/04 06:40:18;;;;;;;1999.90;999.90;;;;;;;11.01;78.77;96536.75;5068462;28;20200;-71
2021/10/04 06:42:45;;;;;;;1999.90;999.90;;;;;;;11.26;78.04;96528.75;5068513;28;20197;-72
2021/10/04 06:45:12;;;;;;;1999.90;999.90;;;;;;;11.43;76.46;96530.97;5068510;28;20291;-72
2021/10/04 06:47:41;;;;;;;1999.90;999.90;;;;;;;11.52;76.05;96535.31;5068818;28;20307;-72
2021/10/04 06:50:10;;;;;;;1999.90;999.90;;;;;;;11.58;77.95;96536.03;5068734;28;21039;-72
2021/10/04 06:52:38;;;;;;;1999.90;999.90;;;;;;;11.59;76.78;96541.00;5068446;28;20734;-72
2021/10/04 06:55:07;;;;;;;1999.90;999.90;;;;;;;11.52;76.19;96535.31;5065554;28;20658;-71
2021/10/04 06:57:36;;;;;;;1999.90;999.90;;;;;;;11.33;76.91;96536.25;5068780;28;20200;-72
2021/10/04 07:00:04;;;;;;;1999.90;999.90;;;;;;;11.35;77.94;96540.13;5068396;28;20740;-72
2021/10/04 07:02:31;;;;;;;1999.90;999.90;;;;;;;11.32;78.90;96545.88;5068748;28;20199;-72
2021/10/04 07:05:01;;;;;;;1999.90;999.90;;;;;;;11.73;79.43;96541.16;5068318;28;20684;-72
2021/10/04 07:07:28;;;;;;;1999.90;999.90;;;;;;;11.78;77.27;96542.94;5068357;28;20243;-72
2021/10/04 07:09:55;;;;;;;1999.90;999.90;;;;;;;11.57;77.75;96537.88;5068173;28;20581;-71
2021/10/04 07:12:22;;;;;;;1999.90;999.90;;;;;;;11.79;78.93;96537.47;5068264;28;20243;-71
2021/10/04 07:14:49;;;;;;;1999.90;999.90;;;;;;;12.05;76.28;96543.19;5069997;28;20246;-71
2021/10/04 07:17:16;;;;;;;1999.90;999.90;;;;;;;11.86;77.33;96535.28;5072143;28;20200;-71
2021/10/04 07:19:43;;;;;;;1999.90;999.90;;;;;;;12.18;77.08;96544.34;5071755;28;20204;-71
2021/10/04 07:22:11;;;;;;;1999.90;999.90;;;;;;;12.59;74.44;96532.41;5071612;28;20287;-71
2021/10/04 07:24:38;;;;;;;1999.90;999.90;;;;;;;12.72;73.71;96529.13;5072115;28;20235;-71
2021/10/04 07:27:06;;;;;;;1999.90;999.90;;;;;;;13.03;73.09;96526.88;5072038;28;20251;-71
2021/10/04 07:29:33;;;;;;;1999.90;999.90;;;;;;;13.27;71.57;96530.19;5071843;28;20292;-71
2021/10/04 07:32:02;;;;;;;1999.90;999.90;;;;;;;13.43;70.18;96525.50;5071122;28;20196;-71
2021/10/04 07:34:29;;;;;;;1999.90;999.90;;;;;;;13.41;69.14;96532.06;5071439;28;20586;-71
2021/10/04 07:36:56;;;;;;;1999.90;999.90;;;;;;;13.57;68.62;96539.38;5071436;28;20930;-71
2021/10/04 07:39:25;;;;;;;1999.90;999.90;;;;;;;13.70;68.96;96530.81;5071653;28;20833;-71
2021/10/04 07:41:52;;;;;;;1999.90;999.90;;;;;;;13.63;68.82;96524.41;5071250;28;20196;-71
2021/10/04 07:44:20;;;;;;;1999.90;999.90;;;;;;;13.52;69.42;96523.03;5071688;28;20205;-71
2021/10/04 07:46:48;;;;;;;1999.90;999.90;;;;;;;13.59;67.74;96524.22;5071134;28;20582;-72
2021/10/04 07:49:16;;;;;;;1999.90;999.90;;;;;;;13.59;68.53;96524.22;5071048;28;20255;-71
2021/10/04 07:51:43;;;;;;;1999.90;999.90;;;;;;;13.90;68.73;96532.28;5071358;28;20232;-71
2021/10/04 07:54:10;;;;;;;1999.90;999.90;;;;;;;13.90;68.42;96518.47;5071184;28;20236;-71
2021/10/04 07:56:39;;;;;;;1999.90;999.90;;;;;;;14.26;65.79;96519.34;5071300;28;20254;-71
2021/10/04 07:59:06;;;;;;;1999.90;999.90;;;;;;;14.16;64.85;96517.69;5071033;28;20196;-71
2021/10/04 08:01:34;;;;;;;1999.90;999.90;;;;;;;14.09;64.96;96509.47;5071206;28;20209;-71
2021/10/04 08:04:01;;;;;;;1999.90;999.90;;;;;;;14.31;64.66;96513.25;5071033;28;20656;-71
2021/10/04 08:06:28;;;;;;;1999.90;999.90;;;;;;;14.30;64.86;96514.31;5071176;28;20254;-71
2021/10/04 08:08:56;;;;;;;1999.90;999.90;;;;;;;14.32;64.45;96507.72;5070792;28;20264;-71
2021/10/04 08:11:24;;;;;;;1999.90;999.90;;;;;;;14.53;64.57;96506.28;5071085;28;20303;-71
2021/10/04 08:13:52;;;;;;;1999.90;999.90;;;;;;;14.88;64.67;96502.16;5070984;28;20665;-71
2021/10/04 08:16:21;;;;;;;1999.90;999.90;;;;;;;14.82;63.76;96497.31;5070951;28;20279;-71
2021/10/04 08:18:48;;;;;;;1999.90;999.90;;;;;;;15.04;63.44;96505.94;5070952;28;20283;-71
2021/10/04 08:21:16;;;;;;;1999.90;999.90;;;;;;;15.20;63.44;96510.84;5070738;28;20672;-71
2021/10/04 08:23:44;;;;;;;1999.90;999.90;;;;;;;15.34;62.28;96504.47;5070855;28;20209;-71
2021/10/04 08:26:11;;;;;;;1999.90;999.90;;;;;;;15.46;61.49;96502.09;5070443;28;20313;-71
2021/10/04 08:28:38;;;;;;;1999.90;999.90;;;;;;;15.61;58.48;96502.81;5070799;28;20344;-71
2021/10/04 08:31:07;;;;;;;1999.90;999.90;;;;;;;15.79;58.86;96499.25;5070882;28;20218;-71
2021/10/04 08:33:35;;;;;;;1999.90;999.90;;;;;;;15.81;59.91;96497.84;5070219;28;20192;-71
2021/10/04 08:36:05;;;;;;;1999.90;999.90;;;;;;;16.01;58.16;96491.31;5070391;28;20254;-71
2021/10/04 08:38:32;;;;;;;1999.90;999.90;;;;;;;16.20;59.56;96493.69;5070401;28;20196;-71
2021/10/04 08:41:00;;;;;;;1999.90;999.90;;;;;;;16.21;57.83;96488.13;5070524;28;20205;-72
2021/10/04 08:43:27;;;;;;;1999.90;999.90;;;;;;;16.20;58.81;96476.09;5070348;28;20279;-70
2021/10/04 08:45:57;;;;;;;1999.90;999.90;;;;;;;16.06;58.50;96475.44;5070352;28;20275;-71
2021/10/04 08:48:26;;;;;;;1999.90;999.90;;;;;;;15.96;58.36;96473.09;5070460;28;20220;-71
2021/10/04 08:50:55;;;;;;;1999.90;999.90;;;;;;;16.21;57.74;96461.91;5069889;28;20599;-71
2021/10/04 08:53:22;;;;;;;1999.90;999.90;;;;;;;16.25;58.79;96464.69;5069772;28;20708;-71
2021/10/04 08:55:49;;;;;;;1999.90;999.90;;;;;;;16.72;57.80;96463.09;5070251;28;20189;-71
2021/10/04 08:58:16;;;;;;;1999.90;999.90;;;;;;;16.85;54.51;96462.16;5069902;28;20250;-71
2021/10/04 09:00:43;;;;;;;1999.90;999.90;;;;;;;16.81;55.23;96457.84;5070073;28;20196;-71
2021/10/04 09:03:12;;;;;;;1999.90;999.90;;;;;;;16.88;54.24;96453.69;5069745;28;20197;-71
2021/10/04 09:05:44;;;;;;;1999.90;999.90;;;;;;;17.08;56.01;96445.19;5069603;28;20200;-71
2021/10/04 09:08:14;;;;;;;1999.90;999.90;;;;;;;17.38;55.24;96453.16;5069990;28;20252;-71
2021/10/04 09:10:44;;;;;;;1999.90;999.90;;;;;;;17.61;53.79;96451.88;5070034;28;20272;-71
2021/10/04 09:13:13;;;;;;;1999.90;999.90;;;;;;;17.33;53.48;96445.44;5069623;28;20200;-71
2021/10/04 09:15:43;;;;;;;1999.90;999.90;;;;;;;17.53;52.02;96435.00;5070003;28;20265;-71
2021/10/04 09:18:20;;;;;;;1999.90;999.90;;;;;;;17.79;51.45;96436.81;5069852;28;20283;-71
2021/10/04 09:20:57;;;;;;;1999.90;999.90;;;;;;;17.86;51.58;96427.34;5069743;28;20290;-71
2021/10/04 09:23:46;;;;;;;1999.90;999.90;;;;;;;17.92;50.96;96420.06;5069386;28;20725;-71
2021/10/04 09:26:33;;;;;;;1999.90;999.90;;;;;;;18.12;50.14;96424.59;5069611;28;20712;-71
2021/10/04 09:29:02;;;;;;;1999.90;999.90;;;;;;;18.06;50.72;96417.97;5069596;28;20208;-71
2021/10/04 09:31:31;;;;;;;1999.90;999.90;;;;;;;18.29;49.94;96419.22;5069466;28;20236;-70
2021/10/04 09:34:00;;;;;;;1999.90;999.90;;;;;;;18.28;49.86;96412.41;5068610;28;20269;-70
2021/10/04 09:36:29;;;;;;;1999.90;999.90;;;;;;;18.54;48.35;96411.50;5068541;28;20196;-71
2021/10/04 09:39:20;;;;;;;1999.90;999.90;;;;;;;18.66;48.44;96411.56;5069239;28;20771;-71
2021/10/04 09:41:59;;;;;;;1999.90;999.90;;;;;;;18.80;47.88;96402.31;5069044;28;20188;-72
2021/10/04 09:44:28;;;;;;;1999.90;999.90;;;;;;;18.77;47.06;96395.06;5069137;28;20258;-71
2021/10/04 09:47:09;;;;;;;1999.90;999.90;;;;;;;18.79;46.32;96394.72;5069008;28;20235;-71
2021/10/04 09:49:51;;;;;;;1999.90;999.90;;;;;;;19.06;42.98;96398.66;5069129;28;20208;-71
2021/10/04 09:52:20;;;;;;;1999.90;999.90;;;;;;;18.76;44.76;96395.38;5069346;28;20189;-70
2021/10/04 09:54:48;;;;;;;1999.90;999.90;;;;;;;18.95;44.62;96395.66;5069045;28;20315;-72
2021/10/04 09:57:18;;;;;;;1999.90;999.90;;;;;;;19.08;45.92;96391.22;5069282;28;20230;-72
2021/10/04 09:59:46;;;;;;;1999.90;999.90;;;;;;;19.24;44.05;96389.50;5069279;28;20197;-71
2021/10/04 10:02:15;;;;;;;1999.90;999.90;;;;;;;19.08;44.30;96383.31;5069209;28;20664;-72
2021/10/04 10:04:44;;;;;;;1999.90;999.90;;;;;;;19.27;44.60;96386.22;5069653;28;20203;-71
2021/10/04 10:07:11;;;;;;;1999.90;999.90;;;;;;;19.54;42.67;96382.97;5069330;28;20196;-71
2021/10/04 10:09:42;;;;;;;1999.90;999.90;;;;;;;19.59;41.84;96387.25;5069028;28;20851;-71
2021/10/04 10:12:10;;;;;;;1999.90;999.90;;;;;;;19.58;42.81;96381.22;5068795;28;20192;-71
2021/10/04 10:14:45;;;;;;;1999.90;999.90;;;;;;;19.67;40.94;96376.63;5068768;28;20733;-71
2021/10/04 10:17:18;;;;;;;1999.90;999.90;;;;;;;19.63;40.87;96375.72;5069082;28;20257;-71
2021/10/04 10:19:48;;;;;;;1999.90;999.90;;;;;;;19.92;40.88;96366.06;5069074;28;20176;-71
2021/10/04 10:22:18;;;;;;;1999.90;999.90;;;;;;;19.85;41.14;96363.97;5068632;28;20279;-71
2021/10/04 10:24:50;;;;;;;1999.90;999.90;;;;;;;20.19;41.05;96365.34;5069000;28;20657;-72
2021/10/04 10:27:18;;;;;;;1999.90;999.90;;;;;;;20.43;40.30;96361.91;5068653;28;20629;-72
2021/10/04 10:29:45;;;;;;;1999.90;999.90;;;;;;;20.43;38.45;96362.69;5068624;28;20308;-72
2021/10/04 10:32:15;;;;;;;1999.90;999.90;;;;;;;20.34;38.19;96356.78;5068693;28;20264;-71
2021/10/04 10:34:50;;;;;;;1999.90;999.90;;;;;;;20.40;39.07;96344.88;5069020;28;20602;-72
2021/10/04 10:37:18;;;;;;;1999.90;999.90;;;;;;;20.39;38.61;96345.22;5068840;28;20211;-71
2021/10/04 10:39:50;;;;;;;1999.90;999.90;;;;;;;20.35;38.44;96341.72;5068606;28;20665;-71
2021/10/04 10:42:19;;;;;;;1999.90;999.90;;;;;;;20.43;39.06;96340.78;5068474;28;20653;-72
2021/10/04 10:45:14;;;;;;;1999.90;999.90;;;;;;;20.54;38.86;96339.22;5068441;28;20236;-71
2021/10/04 10:47:51;;;;;;;1999.90;999.90;;;;;;;20.77;39.05;96331.53;5066985;28;20205;-71
2021/10/04 10:50:24;;;;;;;1999.90;999.90;;;;;;;20.87;37.93;96325.78;5072457;28;20200;-72
2021/10/04 10:53:10;;;;;;;1999.90;999.90;;;;;;;20.91;37.47;96321.34;5071937;28;20184;-71
2021/10/04 10:55:40;;;;;;;1999.90;999.90;;;;;;;21.00;38.76;96316.66;5072522;28;20223;-71
2021/10/04 10:58:12;;;;;;;1999.90;999.90;;;;;;;21.17;38.18;96318.25;5072141;28;20196;-71
2021/10/04 11:00:41;;;;;;;1999.90;999.90;;;;;;;21.20;37.52;96313.03;5071794;28;20665;-72
2021/10/04 11:03:12;;;;;;;1999.90;999.90;;;;;;;20.98;37.62;96306.41;5072306;28;20297;-71